Hlavní strana
METAR-TAF:

METAR-TAF

Letiště :

Mezinárodní letiště Kapské Město

Kapské Město, Jihoafrická republika

zeměpisná šířka: 33-59S, zeměpisná délka: 018-36E, výška: 42 m

Aktuální stav počasí

Zpráva byla vytvořena před 53 minutami, v 02:00 UTC
vítr z různých směrů 2 kt
Teplota 11°C
Vlhkost vzduchu 82%
Tlak 1022 hPa
Viditelnost 10 km a více
Žádná oblačnost pod 1500 m, nevyskytují se cumulonimby.

METAR: FACT 180200Z VRB02KT CAVOK 11/08 Q1022 NOSIG

Čas: 04:53 (02:53 UTC)

Předpověď počasí

Zpráva byla vytvořena před 4 hodinami a 53 minutami, v 22:00 UTC
Předpověď platná od 18 v 00 UTC do 19 v 06 UTC
vítr z různých směrů 3 kt
Viditelnost 10 km a více
Žádná oblačnost pod 1500 m, nevyskytují se cumulonimby.

TAF: FACT 172200Z 1800/1906 VRB03KT CAVOK TX26/1812Z TN09/1806Z

Stav a předpovědi počasí z více než 4 000 letišť (zprávy METAR a TAF).

Červené a žluté tečky na mapě představují dostupné meteorologické stanice.

Když kurzor umístíte na tečku, zobrazí se název stanice.

Pak kliknutím zobrazíte stav a předpověď počasí.

Chcete-li změnit mapu, kliknutím na zelené tlačítko se znaménkem +mapu přiblížíte, kliknutím na zelené tlačítko se znaménkem – mapu oddálíte a kliknutím na zelené šipky přejdete na sousední mapy.


METAR-TAF: